Terminal Aerodrome Forecast
Issued by NWS Topeka, KS

Home | Current Version | Previous Version | Text Only | Print | Product List | Glossary Off
Versions: 1 2 3 4 5 6 7 8 9 10 11 12 13 14 15 16 17 18 19

000
FTUS43 KTOP 060520
TAFTOP
TAF
KTOP 060520Z 0606/0706 16012KT P6SM BKN250
     FM061500 19014G20KT P6SM SCT040 BKN120
     FM062300 20010KT 5SM TSRA OVC030CB
     FM070200 34013KT 5SM -SHRA VCTS OVC120CB=

USA.gov is the U.S. government's official web portal to all federal, state and local government web resources and services.